Time;durP1;ratioP1;P1;durP2;ratioP2;P2;SDS_P1;SDS_P2;PMS_P1;PMS_P2;Temp;Humidity;BMP_temperature;BMP_pressure;BME280_temperature;BME280_humidity;BME280_pressure;Samples;Min_cycle;Max_cycle;Signal;HPM_P1;HPM_P2
2022/02/25 00:01:34;;;;;;;12.43;6.50;;;;;;;;;;5014094;28;20078;-78
2022/02/25 00:04:00;;;;;;;10.55;6.05;;;;;;;;;;5014207;28;20034;-81
2022/02/25 00:06:26;;;;;;;17.00;9.90;;;;;;;;;;5013937;28;20049;-79
2022/02/25 00:08:52;;;;;;;19.77;11.57;;;;;;;;;;5014171;28;20022;-78
2022/02/25 00:11:18;;;;;;;16.08;10.30;;;;;;;;;;5014387;28;20052;-82
2022/02/25 00:13:44;;;;;;;11.77;6.78;;;;;;;;;;5014009;28;20037;-80
2022/02/25 00:16:11;;;;;;;10.32;5.50;;;;;;;;;;5013485;28;20088;-83
2022/02/25 00:18:37;;;;;;;6.55;3.97;;;;;;;;;;5014200;28;20030;-80
2022/02/25 00:21:03;;;;;;;10.07;4.60;;;;;;;;;;5014212;28;20030;-81
2022/02/25 00:23:29;;;;;;;10.20;5.28;;;;;;;;;;5013951;28;20072;-82
2022/02/25 00:25:55;;;;;;;12.73;6.53;;;;;;;;;;5013587;28;20484;-79
2022/02/25 00:28:21;;;;;;;11.05;4.30;;;;;;;;;;5013977;28;20038;-79
2022/02/25 00:30:47;;;;;;;5.32;2.90;;;;;;;;;;5013357;28;20029;-83
2022/02/25 00:33:16;;;;;;;7.57;4.03;;;;;;;;;;5013777;28;20030;-83
2022/02/25 00:35:43;;;;;;;8.40;4.10;;;;;;;;;;5013345;28;20029;-82
2022/02/25 00:38:15;;;;;;;7.72;4.43;;;;;;;;;;5013539;28;20038;-81
2022/02/25 00:40:41;;;;;;;6.82;3.92;;;;;;;;;;5013405;28;20124;-79
2022/02/25 00:43:07;;;;;;;6.93;4.03;;;;;;;;;;5013536;28;20026;-81
2022/02/25 00:45:33;;;;;;;8.73;4.70;;;;;;;;;;5013282;28;20030;-80
2022/02/25 00:47:59;;;;;;;10.23;6.32;;;;;;;;;;5013530;28;20030;-81
2022/02/25 00:50:25;;;;;;;14.77;7.32;;;;;;;;;;5013487;28;20057;-81
2022/02/25 00:52:52;;;;;;;13.75;7.80;;;;;;;;;;5013060;28;20033;-78
2022/02/25 00:55:18;;;;;;;23.00;12.55;;;;;;;;;;5013548;28;20037;-79
2022/02/25 00:57:45;;;;;;;21.75;13.35;;;;;;;;;;5013042;28;20026;-78
2022/02/25 01:00:11;;;;;;;21.25;10.05;;;;;;;;;;5012681;28;20049;-79
2022/02/25 01:02:37;;;;;;;26.33;12.00;;;;;;;;;;5013404;28;20053;-79
2022/02/25 01:05:04;;;;;;;24.75;12.95;;;;;;;;;;5012878;28;20038;-81
2022/02/25 01:07:30;;;;;;;22.98;12.48;;;;;;;;;;5013348;28;20034;-79
2022/02/25 01:09:56;;;;;;;21.80;11.65;;;;;;;;;;5012957;28;20385;-81
2022/02/25 01:12:22;;;;;;;36.00;16.45;;;;;;;;;;5013175;28;20565;-80
2022/02/25 01:14:48;;;;;;;37.65;19.15;;;;;;;;;;5012862;28;20479;-79
2022/02/25 01:17:14;;;;;;;29.58;14.40;;;;;;;;;;5013837;28;20026;-80
2022/02/25 01:19:40;;;;;;;22.85;12.10;;;;;;;;;;5013622;28;20040;-79
2022/02/25 01:22:09;;;;;;;25.88;14.65;;;;;;;;;;5012914;28;20030;-81
2022/02/25 01:24:37;;;;;;;27.85;15.20;;;;;;;;;;5013272;28;20109;-81
2022/02/25 01:27:07;;;;;;;17.92;11.30;;;;;;;;;;5012560;28;20037;-80
2022/02/25 01:29:35;;;;;;;21.30;12.60;;;;;;;;;;5012997;28;20026;-79
2022/02/25 01:32:02;;;;;;;29.42;15.82;;;;;;;;;;5012486;28;20109;-81
2022/02/25 01:34:29;;;;;;;30.65;17.13;;;;;;;;;;5013009;28;20058;-79
2022/02/25 01:36:55;;;;;;;31.40;18.55;;;;;;;;;;5012741;28;20054;-81
2022/02/25 01:39:21;;;;;;;20.58;11.98;;;;;;;;;;5012803;28;20137;-78
2022/02/25 01:41:47;;;;;;;14.73;7.00;;;;;;;;;;5012633;28;20026;-78
2022/02/25 01:44:14;;;;;;;14.57;8.80;;;;;;;;;;5012575;28;20025;-79
2022/02/25 01:46:41;;;;;;;12.63;7.43;;;;;;;;;;5012595;28;20117;-79
2022/02/25 01:49:09;;;;;;;9.70;6.30;;;;;;;;;;5011314;28;20435;-79
2022/02/25 01:51:35;;;;;;;17.95;10.02;;;;;;;;;;5012672;28;20090;-80
2022/02/25 01:54:02;;;;;;;10.38;6.35;;;;;;;;;;5012384;28;20038;-79
2022/02/25 01:56:28;;;;;;;12.15;5.85;;;;;;;;;;5011148;28;20030;-79
2022/02/25 01:58:55;;;;;;;9.45;5.30;;;;;;;;;;5012284;28;20034;-82
2022/02/25 02:01:21;;;;;;;11.75;5.72;;;;;;;;;;5011758;28;20547;-78
2022/02/25 02:03:49;;;;;;;16.98;7.78;;;;;;;;;;5012736;28;20029;-79
2022/02/25 02:06:16;;;;;;;15.77;8.43;;;;;;;;;;5011105;28;20081;-80
2022/02/25 02:08:42;;;;;;;31.50;16.40;;;;;;;;;;5012934;28;20535;-81
2022/02/25 02:11:08;;;;;;;19.60;10.68;;;;;;;;;;5015064;28;20029;-81
2022/02/25 02:13:34;;;;;;;21.98;11.15;;;;;;;;;;5014780;28;20117;-81
2022/02/25 02:16:01;;;;;;;22.98;12.52;;;;;;;;;;5015822;28;20022;-78
2022/02/25 02:18:27;;;;;;;23.67;11.82;;;;;;;;;;5015847;28;20030;-78
2022/02/25 02:20:53;;;;;;;24.20;11.38;;;;;;;;;;5014214;28;20072;-78
2022/02/25 02:23:20;;;;;;;22.38;10.68;;;;;;;;;;5015452;28;20149;-80
2022/02/25 02:25:46;;;;;;;26.88;15.60;;;;;;;;;;5015388;28;20060;-79
2022/02/25 02:28:20;;;;;;;25.08;14.52;;;;;;;;;;5015359;28;20061;-79
2022/02/25 02:30:46;;;;;;;31.88;16.55;;;;;;;;;;5015533;28;20367;-79
2022/02/25 02:33:13;;;;;;;27.85;16.40;;;;;;;;;;5015295;28;20485;-80
2022/02/25 02:35:39;;;;;;;26.30;13.80;;;;;;;;;;5015320;28;20026;-79
2022/02/25 02:38:05;;;;;;;19.92;11.48;;;;;;;;;;5015024;28;20481;-78
2022/02/25 02:40:31;;;;;;;12.88;8.40;;;;;;;;;;5015301;28;20022;-77
2022/02/25 02:42:57;;;;;;;6.90;4.50;;;;;;;;;;5015322;28;20428;-79
2022/02/25 02:45:23;;;;;;;5.93;3.40;;;;;;;;;;5015004;28;20080;-78
2022/02/25 02:47:49;;;;;;;6.78;3.53;;;;;;;;;;5015089;28;20030;-79
2022/02/25 02:50:16;;;;;;;8.55;4.63;;;;;;;;;;5015052;28;20048;-80
2022/02/25 02:52:42;;;;;;;15.25;10.70;;;;;;;;;;5014349;28;20113;-80
2022/02/25 02:55:08;;;;;;;17.20;12.98;;;;;;;;;;5014144;28;20116;-79
2022/02/25 02:57:35;;;;;;;19.83;13.32;;;;;;;;;;5015334;28;20025;-78
2022/02/25 03:00:01;;;;;;;15.55;8.63;;;;;;;;;;5015477;28;20404;-79
2022/02/25 03:02:27;;;;;;;11.65;6.15;;;;;;;;;;5015783;28;20037;-79
2022/02/25 03:04:53;;;;;;;13.07;7.80;;;;;;;;;;5013549;28;20092;-79
2022/02/25 03:07:19;;;;;;;11.60;7.15;;;;;;;;;;5015236;28;20030;-80
2022/02/25 03:09:46;;;;;;;12.95;8.07;;;;;;;;;;5015361;28;20080;-81
2022/02/25 03:12:12;;;;;;;9.43;4.95;;;;;;;;;;5015394;28;20117;-79
2022/02/25 03:14:48;;;;;;;7.10;4.53;;;;;;;;;;5015190;28;20030;-81
2022/02/25 03:17:14;;;;;;;8.30;4.40;;;;;;;;;;5014930;28;20026;-78
2022/02/25 03:19:41;;;;;;;5.57;3.50;;;;;;;;;;5015036;28;20105;-78
2022/02/25 03:22:07;;;;;;;17.08;9.35;;;;;;;;;;5012940;28;20030;-80
2022/02/25 03:24:33;;;;;;;12.93;7.25;;;;;;;;;;5014957;28;20030;-80
2022/02/25 03:27:00;;;;;;;8.10;5.40;;;;;;;;;;5014946;28;20038;-79
2022/02/25 03:29:26;;;;;;;9.40;5.82;;;;;;;;;;5014863;28;20044;-79
2022/02/25 03:31:52;;;;;;;9.30;6.10;;;;;;;;;;5014939;28;20480;-79
2022/02/25 03:34:18;;;;;;;7.22;5.38;;;;;;;;;;5014469;28;20033;-81
2022/02/25 03:36:44;;;;;;;9.93;5.63;;;;;;;;;;5013642;28;20382;-80
2022/02/25 03:39:10;;;;;;;13.48;7.30;;;;;;;;;;5014574;28;20503;-80
2022/02/25 03:41:36;;;;;;;12.80;6.13;;;;;;;;;;5014530;28;20537;-80
2022/02/25 03:44:03;;;;;;;13.75;6.05;;;;;;;;;;5014559;28;20068;-80
2022/02/25 03:46:29;;;;;;;11.27;5.30;;;;;;;;;;5014433;28;20030;-79
2022/02/25 03:48:55;;;;;;;7.55;3.63;;;;;;;;;;5014501;28;20040;-77
2022/02/25 03:51:23;;;;;;;7.05;3.67;;;;;;;;;;5014523;28;20030;-80
2022/02/25 03:53:49;;;;;;;7.38;4.38;;;;;;;;;;5014440;28;20565;-80
2022/02/25 03:56:16;;;;;;;6.95;4.22;;;;;;;;;;5014453;28;20034;-79
2022/02/25 03:58:42;;;;;;;6.40;4.10;;;;;;;;;;5014175;28;20060;-81
2022/02/25 04:01:09;;;;;;;5.78;3.65;;;;;;;;;;5014345;28;20109;-78
2022/02/25 04:03:35;;;;;;;12.73;7.85;;;;;;;;;;5013964;28;20057;-78
2022/02/25 04:06:01;;;;;;;10.75;6.32;;;;;;;;;;5013990;28;20049;-81
2022/02/25 04:08:27;;;;;;;7.63;4.65;;;;;;;;;;5013809;28;20022;-78
2022/02/25 04:10:53;;;;;;;11.77;8.07;;;;;;;;;;5013971;28;20026;-78
2022/02/25 04:13:20;;;;;;;11.05;7.53;;;;;;;;;;5014145;28;20034;-78
2022/02/25 04:15:46;;;;;;;18.95;10.10;;;;;;;;;;5013796;28;20030;-79
2022/02/25 04:18:12;;;;;;;16.75;9.60;;;;;;;;;;5013672;28;20412;-78
2022/02/25 04:20:39;;;;;;;15.73;8.20;;;;;;;;;;5012418;28;20109;-78
2022/02/25 04:23:05;;;;;;;23.25;11.45;;;;;;;;;;5013921;28;20026;-80
2022/02/25 04:25:31;;;;;;;20.45;10.52;;;;;;;;;;5012345;28;20443;-78
2022/02/25 04:27:57;;;;;;;22.25;12.18;;;;;;;;;;5013894;28;20122;-81
2022/02/25 04:30:24;;;;;;;15.68;9.20;;;;;;;;;;5013663;28;20080;-78
2022/02/25 04:32:50;;;;;;;16.08;8.65;;;;;;;;;;5013455;28;20036;-80
2022/02/25 04:35:16;;;;;;;14.90;9.65;;;;;;;;;;5013661;28;20033;-79
2022/02/25 04:37:42;;;;;;;16.95;9.75;;;;;;;;;;5012006;28;20061;-80
2022/02/25 04:40:09;;;;;;;34.45;16.75;;;;;;;;;;5013499;28;20045;-78
2022/02/25 04:42:35;;;;;;;18.77;10.02;;;;;;;;;;5013486;28;20029;-80
2022/02/25 04:45:01;;;;;;;20.58;12.23;;;;;;;;;;5013267;28;20048;-79
2022/02/25 04:47:27;;;;;;;22.13;12.18;;;;;;;;;;5013452;28;20029;-78
2022/02/25 04:49:53;;;;;;;12.48;7.15;;;;;;;;;;5013332;28;20033;-80
2022/02/25 04:52:20;;;;;;;11.65;6.57;;;;;;;;;;5013078;28;20053;-80
2022/02/25 04:54:46;;;;;;;14.52;7.22;;;;;;;;;;5013077;28;20465;-79
2022/02/25 04:57:13;;;;;;;17.17;7.45;;;;;;;;;;5013183;28;20025;-78
2022/02/25 04:59:39;;;;;;;14.60;6.70;;;;;;;;;;5013139;28;20033;-80
2022/02/25 05:02:06;;;;;;;10.93;5.88;;;;;;;;;;5012706;28;20056;-78
2022/02/25 05:04:32;;;;;;;11.07;5.53;;;;;;;;;;5013429;28;20030;-80
2022/02/25 05:06:59;;;;;;;22.08;12.90;;;;;;;;;;5012227;28;20116;-78
2022/02/25 05:09:25;;;;;;;28.27;15.65;;;;;;;;;;5013307;28;20076;-80
2022/02/25 05:11:51;;;;;;;18.85;10.00;;;;;;;;;;5012766;28;20532;-77
2022/02/25 05:22:31;;;;;;;9.48;5.22;;;;;;;;;;5013061;28;20396;-77
2022/02/25 05:24:57;;;;;;;10.50;5.57;;;;;;;;;;5012786;28;20026;-78
2022/02/25 05:27:23;;;;;;;8.65;5.18;;;;;;;;;;5012561;28;20489;-78
2022/02/25 05:29:49;;;;;;;8.25;5.32;;;;;;;;;;5012905;28;20065;-79
2022/02/25 05:32:15;;;;;;;10.65;6.07;;;;;;;;;;5012465;28;20034;-78
2022/02/25 05:34:41;;;;;;;9.23;5.57;;;;;;;;;;5012713;28;20040;-79
2022/02/25 05:37:08;;;;;;;7.82;5.78;;;;;;;;;;5012384;28;20052;-78
2022/02/25 05:39:35;;;;;;;10.98;6.88;;;;;;;;;;5012439;28;20042;-77
2022/02/25 05:42:01;;;;;;;10.18;6.22;;;;;;;;;;5012401;28;20030;-77
2022/02/25 05:44:27;;;;;;;12.77;8.00;;;;;;;;;;5011590;28;20030;-79
2022/02/25 05:46:53;;;;;;;11.80;7.03;;;;;;;;;;5012531;28;20048;-77
2022/02/25 05:49:19;;;;;;;15.65;9.65;;;;;;;;;;5012350;28;20022;-77
2022/02/25 05:51:45;;;;;;;16.88;9.07;;;;;;;;;;5012202;28;20041;-80
2022/02/25 05:54:11;;;;;;;35.72;19.45;;;;;;;;;;5012401;28;20366;-77
2022/02/25 05:56:37;;;;;;;34.22;18.23;;;;;;;;;;5012542;28;20038;-76
2022/02/25 05:59:05;;;;;;;45.88;25.17;;;;;;;;;;5012361;28;20038;-77
2022/02/25 06:01:31;;;;;;;47.25;29.80;;;;;;;;;;5012106;28;20148;-76
2022/02/25 06:03:57;;;;;;;77.55;42.17;;;;;;;;;;5011118;28;20048;-76
2022/02/25 06:06:24;;;;;;;57.90;35.83;;;;;;;;;;5011625;28;20184;-78
2022/02/25 06:08:50;;;;;;;34.42;20.08;;;;;;;;;;5012327;28;20034;-77
2022/02/25 06:11:16;;;;;;;31.83;19.00;;;;;;;;;;5012119;28;20044;-79
2022/02/25 06:13:42;;;;;;;27.17;16.70;;;;;;;;;;5012131;28;20029;-77
2022/02/25 06:16:08;;;;;;;31.88;18.52;;;;;;;;;;5012337;28;20041;-79
2022/02/25 06:18:37;;;;;;;36.67;21.95;;;;;;;;;;5010818;28;20032;-78
2022/02/25 06:21:05;;;;;;;32.25;19.92;;;;;;;;;;5011870;28;20037;-77
2022/02/25 06:23:31;;;;;;;36.50;22.95;;;;;;;;;;5011700;28;20057;-77
2022/02/25 06:25:58;;;;;;;29.48;16.58;;;;;;;;;;5005940;28;20032;-80
2022/02/25 06:28:24;;;;;;;35.72;17.05;;;;;;;;;;5010507;28;20093;-78
2022/02/25 06:30:50;;;;;;;25.92;14.65;;;;;;;;;;5010566;28;20029;-80
2022/02/25 06:33:16;;;;;;;18.35;11.38;;;;;;;;;;5013965;28;20079;-80
2022/02/25 06:35:43;;;;;;;27.13;18.17;;;;;;;;;;5015529;28;20038;-79
2022/02/25 06:38:09;;;;;;;31.13;20.38;;;;;;;;;;5016089;28;20034;-81
2022/02/25 06:40:36;;;;;;;25.30;15.10;;;;;;;;;;5003825;28;20084;-79
2022/02/25 06:43:02;;;;;;;24.27;15.23;;;;;;;;;;5011032;28;20109;-79
2022/02/25 06:45:28;;;;;;;23.73;15.27;;;;;;;;;;5009752;28;20565;-81
2022/02/25 06:47:54;;;;;;;24.10;15.40;;;;;;;;;;5001273;28;20117;-79
2022/02/25 06:50:20;;;;;;;57.60;37.53;;;;;;;;;;5005100;28;20068;-81
2022/02/25 06:52:47;;;;;;;35.97;23.27;;;;;;;;;;5010402;28;20029;-80
2022/02/25 06:55:14;;;;;;;36.15;21.20;;;;;;;;;;5009906;28;20611;-84
2022/02/25 06:57:42;;;;;;;38.97;25.48;;;;;;;;;;5013178;28;20041;-81
2022/02/25 07:00:11;;;;;;;43.30;25.55;;;;;;;;;;5014440;28;20034;-80
2022/02/25 07:02:37;;;;;;;41.22;26.77;;;;;;;;;;5012378;28;20117;-82
2022/02/25 07:05:04;;;;;;;42.65;29.85;;;;;;;;;;5014596;28;20041;-79
2022/02/25 07:07:30;;;;;;;68.15;45.67;;;;;;;;;;5012582;28;20033;-80
2022/02/25 07:09:59;;;;;;;43.65;29.88;;;;;;;;;;5009721;28;20370;-82
2022/02/25 07:12:26;;;;;;;43.60;29.30;;;;;;;;;;5008526;28;20500;-80
2022/02/25 07:14:52;;;;;;;38.70;25.77;;;;;;;;;;5013566;28;20469;-80
2022/02/25 07:17:18;;;;;;;49.92;31.00;;;;;;;;;;5008898;28;20026;-83
2022/02/25 07:19:44;;;;;;;63.33;42.20;;;;;;;;;;5004308;28;20037;-80
2022/02/25 07:22:11;;;;;;;51.10;33.83;;;;;;;;;;5014082;28;20492;-80
2022/02/25 07:24:37;;;;;;;56.53;37.33;;;;;;;;;;5011990;28;20041;-82
2022/02/25 07:27:03;;;;;;;42.13;27.60;;;;;;;;;;5006358;28;20425;-79
2022/02/25 07:29:29;;;;;;;45.38;30.55;;;;;;;;;;5012260;28;20157;-80
2022/02/25 07:31:55;;;;;;;42.13;31.63;;;;;;;;;;5013513;28;20026;-81
2022/02/25 07:34:22;;;;;;;39.20;25.60;;;;;;;;;;5017659;28;20484;-79
2022/02/25 07:36:51;;;;;;;31.88;21.13;;;;;;;;;;5011516;28;20036;-81
2022/02/25 07:39:17;;;;;;;32.92;21.30;;;;;;;;;;5012563;28;20052;-79
2022/02/25 07:41:43;;;;;;;26.85;16.70;;;;;;;;;;5010044;28;20022;-81
2022/02/25 07:44:09;;;;;;;25.38;17.23;;;;;;;;;;5011924;28;20104;-81
2022/02/25 07:46:35;;;;;;;16.27;10.85;;;;;;;;;;5011142;28;20029;-80
2022/02/25 07:49:07;;;;;;;15.38;10.05;;;;;;;;;;5012667;28;20029;-81
2022/02/25 07:51:33;;;;;;;13.32;8.43;;;;;;;;;;5012704;28;20036;-80
2022/02/25 07:54:03;;;;;;;17.23;10.60;;;;;;;;;;5012534;28;20033;-80
2022/02/25 07:56:29;;;;;;;19.13;10.23;;;;;;;;;;5009665;28;20044;-80
2022/02/25 07:58:55;;;;;;;14.93;9.32;;;;;;;;;;5012227;28;20042;-82
2022/02/25 08:01:22;;;;;;;10.73;7.35;;;;;;;;;;5012572;28;20052;-81
2022/02/25 08:03:48;;;;;;;13.93;7.57;;;;;;;;;;5012670;28;20087;-80
2022/02/25 08:06:14;;;;;;;12.27;7.28;;;;;;;;;;5010611;28;20053;-80
2022/02/25 08:08:40;;;;;;;11.82;7.00;;;;;;;;;;5012393;28;20040;-81
2022/02/25 08:11:06;;;;;;;12.18;7.70;;;;;;;;;;5013253;28;20025;-81
2022/02/25 08:13:33;;;;;;;10.20;7.25;;;;;;;;;;5012234;28;20439;-78
2022/02/25 08:15:59;;;;;;;14.60;8.52;;;;;;;;;;5012833;28;20030;-81
2022/02/25 08:18:26;;;;;;;11.70;8.85;;;;;;;;;;5011444;28;20366;-80
2022/02/25 08:20:52;;;;;;;11.75;7.57;;;;;;;;;;5011269;28;20532;-79
2022/02/25 08:23:18;;;;;;;32.80;21.92;;;;;;;;;;5000506;28;20053;-79
2022/02/25 08:25:44;;;;;;;21.55;12.93;;;;;;;;;;5010777;28;20040;-79
2022/02/25 08:28:11;;;;;;;27.48;16.13;;;;;;;;;;5012443;28;20042;-80
2022/02/25 08:30:39;;;;;;;16.27;9.52;;;;;;;;;;5012740;28;20445;-78
2022/02/25 08:33:05;;;;;;;11.32;7.07;;;;;;;;;;5014289;28;20044;-83
2022/02/25 08:35:33;;;;;;;10.52;5.72;;;;;;;;;;5031023;28;20373;-79
2022/02/25 08:38:03;;;;;;;12.45;7.18;;;;;;;;;;5009404;28;20033;-79
2022/02/25 08:40:29;;;;;;;13.85;9.05;;;;;;;;;;5007933;28;20026;-79
2022/02/25 08:42:55;;;;;;;28.60;15.38;;;;;;;;;;5005704;28;20038;-81
2022/02/25 08:45:22;;;;;;;8.48;6.20;;;;;;;;;;4993015;28;20019;-82
2022/02/25 08:47:49;;;;;;;8.57;5.13;;;;;;;;;;4999554;28;20517;-80
2022/02/25 08:50:17;;;;;;;9.77;5.15;;;;;;;;;;5012016;28;20030;-82
2022/02/25 08:52:44;;;;;;;8.55;5.35;;;;;;;;;;5012535;28;20029;-80
2022/02/25 08:55:11;;;;;;;9.70;5.47;;;;;;;;;;4992491;28;20042;-81
2022/02/25 08:57:40;;;;;;;10.65;6.13;;;;;;;;;;4992432;28;20113;-82
2022/02/25 09:00:07;;;;;;;11.35;5.75;;;;;;;;;;4992384;28;20026;-82
2022/02/25 09:02:34;;;;;;;10.65;5.60;;;;;;;;;;5006865;28;20037;-80
2022/02/25 09:05:02;;;;;;;9.75;4.85;;;;;;;;;;5001343;28;20108;-82
2022/02/25 09:07:28;;;;;;;14.25;9.55;;;;;;;;;;5010879;28;20488;-80
2022/02/25 09:09:54;;;;;;;32.28;20.10;;;;;;;;;;5012090;28;20056;-83
2022/02/25 09:12:20;;;;;;;12.95;7.47;;;;;;;;;;5011807;28;20034;-81
2022/02/25 09:14:47;;;;;;;6.07;4.13;;;;;;;;;;5003488;28;20031;-81
2022/02/25 09:17:13;;;;;;;7.70;4.00;;;;;;;;;;4991786;28;20032;-80
2022/02/25 09:19:39;;;;;;;8.50;4.53;;;;;;;;;;4991000;28;20117;-79
2022/02/25 09:22:06;;;;;;;6.50;4.43;;;;;;;;;;4992008;28;20045;-80
2022/02/25 09:24:33;;;;;;;13.82;8.18;;;;;;;;;;4997680;28;20032;-81
2022/02/25 09:26:59;;;;;;;9.48;5.70;;;;;;;;;;5010362;28;20029;-79
2022/02/25 09:29:25;;;;;;;7.43;4.90;;;;;;;;;;5011844;28;20030;-81
2022/02/25 09:31:51;;;;;;;9.00;5.50;;;;;;;;;;5011695;28;20117;-80
2022/02/25 09:34:18;;;;;;;8.25;5.30;;;;;;;;;;5019790;28;20104;-80
2022/02/25 09:36:44;;;;;;;27.77;14.32;;;;;;;;;;5019469;28;20114;-81
2022/02/25 09:39:11;;;;;;;11.70;6.80;;;;;;;;;;5029527;28;20041;-79
2022/02/25 09:41:38;;;;;;;10.98;5.13;;;;;;;;;;5031470;28;20041;-78
2022/02/25 09:44:05;;;;;;;9.02;5.50;;;;;;;;;;5028284;28;20040;-79
2022/02/25 09:46:31;;;;;;;9.30;5.93;;;;;;;;;;5010573;28;20432;-82
2022/02/25 09:48:57;;;;;;;12.07;6.90;;;;;;;;;;5011137;28;20058;-79
2022/02/25 09:51:25;;;;;;;8.18;5.82;;;;;;;;;;5011214;28;20045;-78
2022/02/25 09:53:51;;;;;;;12.45;6.30;;;;;;;;;;5000009;28;20486;-81
2022/02/25 09:56:17;;;;;;;9.60;5.40;;;;;;;;;;4991520;28;20057;-80
2022/02/25 09:58:43;;;;;;;7.28;4.93;;;;;;;;;;4991800;28;20039;-81
2022/02/25 10:01:12;;;;;;;10.02;5.25;;;;;;;;;;4993132;28;20119;-81
2022/02/25 10:03:39;;;;;;;10.18;6.07;;;;;;;;;;5011514;28;20026;-81
2022/02/25 10:06:09;;;;;;;6.90;5.35;;;;;;;;;;5010842;28;20052;-83
2022/02/25 10:08:36;;;;;;;7.95;4.32;;;;;;;;;;5011199;28;20108;-82
2022/02/25 10:11:03;;;;;;;6.80;3.70;;;;;;;;;;5009371;28;20022;-80
2022/02/25 10:13:30;;;;;;;8.27;4.47;;;;;;;;;;5009563;28;20065;-81
2022/02/25 10:15:58;;;;;;;6.95;3.63;;;;;;;;;;5010966;28;20029;-81
2022/02/25 10:18:24;;;;;;;5.03;3.30;;;;;;;;;;5011048;28;20038;-81
2022/02/25 10:20:51;;;;;;;5.68;3.53;;;;;;;;;;5010065;28;20030;-80
2022/02/25 10:23:27;;;;;;;7.75;3.08;;;;;;;;;;5006571;28;20034;-77
2022/02/25 10:25:54;;;;;;;5.22;3.28;;;;;;;;;;4998169;28;20422;-81
2022/02/25 10:28:30;;;;;;;10.60;3.90;;;;;;;;;;4997902;28;20041;-80
2022/02/25 10:31:15;;;;;;;9.45;4.28;;;;;;;;;;5010765;28;20030;-82
2022/02/25 10:33:42;;;;;;;7.57;3.50;;;;;;;;;;5006919;28;20038;-80
2022/02/25 10:36:11;;;;;;;11.68;6.90;;;;;;;;;;5015907;28;20131;-81
2022/02/25 10:38:40;;;;;;;8.63;5.07;;;;;;;;;;5013784;28;20038;-81
2022/02/25 10:41:07;;;;;;;9.65;4.95;;;;;;;;;;5014332;28;20088;-78
2022/02/25 10:43:33;;;;;;;7.18;3.72;;;;;;;;;;5014293;28;20064;-78
2022/02/25 10:46:03;;;;;;;5.88;3.60;;;;;;;;;;5013823;28;20472;-80
2022/02/25 10:48:31;;;;;;;8.60;5.53;;;;;;;;;;5009428;28;20493;-79
2022/02/25 10:51:01;;;;;;;11.50;5.15;;;;;;;;;;5014147;28;20033;-81
2022/02/25 10:53:31;;;;;;;11.30;7.25;;;;;;;;;;5014015;28;20037;-80
2022/02/25 10:56:08;;;;;;;6.90;3.97;;;;;;;;;;5014487;28;20528;-81
2022/02/25 10:58:45;;;;;;;6.63;3.47;;;;;;;;;;5009820;28;20133;-81
2022/02/25 11:01:12;;;;;;;5.15;2.75;;;;;;;;;;5013011;28;20038;-81
2022/02/25 11:03:38;;;;;;;7.53;3.35;;;;;;;;;;5012338;28;20477;-80
2022/02/25 11:06:08;;;;;;;6.97;3.17;;;;;;;;;;5014071;28;20120;-80
2022/02/25 11:08:36;;;;;;;6.25;2.85;;;;;;;;;;5013700;28;20180;-78
2022/02/25 11:11:03;;;;;;;4.57;2.67;;;;;;;;;;4997745;28;20034;-81
2022/02/25 11:13:29;;;;;;;4.63;2.88;;;;;;;;;;4993946;28;20053;-78
2022/02/25 11:15:55;;;;;;;5.63;2.72;;;;;;;;;;4994402;28;20034;-79
2022/02/25 11:18:22;;;;;;;6.18;2.60;;;;;;;;;;4994297;28;20042;-78
2022/02/25 11:20:49;;;;;;;10.85;6.25;;;;;;;;;;5013466;28;20022;-81
2022/02/25 11:23:16;;;;;;;8.80;4.80;;;;;;;;;;5009455;28;20037;-80
2022/02/25 11:25:44;;;;;;;6.15;3.50;;;;;;;;;;5013883;28;20034;-77
2022/02/25 11:28:11;;;;;;;8.05;3.65;;;;;;;;;;5013070;28;20044;-80
2022/02/25 11:30:40;;;;;;;9.13;5.57;;;;;;;;;;5012698;28;20120;-79
2022/02/25 11:33:07;;;;;;;7.78;4.20;;;;;;;;;;5010978;28;20164;-81
2022/02/25 11:35:34;;;;;;;8.57;3.80;;;;;;;;;;5012393;28;20034;-80
2022/02/25 11:38:08;;;;;;;7.57;4.43;;;;;;;;;;5011621;28;20046;-79
2022/02/25 11:40:52;;;;;;;5.65;4.03;;;;;;;;;;5009634;28;20032;-81
2022/02/25 11:43:37;;;;;;;6.50;4.03;;;;;;;;;;5010343;28;20021;-81
2022/02/25 11:46:05;;;;;;;6.30;3.90;;;;;;;;;;5012190;28;20029;-78
2022/02/25 11:48:38;;;;;;;9.65;3.42;;;;;;;;;;5010279;28;20030;-83
2022/02/25 11:51:09;;;;;;;6.32;2.80;;;;;;;;;;5011933;28;20029;-81
2022/02/25 11:53:36;;;;;;;5.20;3.10;;;;;;;;;;5010346;28;20018;-80
2022/02/25 11:56:16;;;;;;;5.00;3.03;;;;;;;;;;5012864;28;20477;-81
2022/02/25 11:58:52;;;;;;;5.95;2.97;;;;;;;;;;5012784;28;20046;-81
2022/02/25 12:01:19;;;;;;;3.63;2.60;;;;;;;;;;5013261;28;20037;-81
2022/02/25 12:04:07;;;;;;;5.10;3.03;;;;;;;;;;5009506;28;20042;-81
2022/02/25 12:06:52;;;;;;;6.70;3.28;;;;;;;;;;5009981;28;20129;-82
2022/02/25 12:09:38;;;;;;;7.28;4.55;;;;;;;;;;5011597;28;20382;-79
2022/02/25 12:12:33;;;;;;;7.30;4.03;;;;;;;;;;5010394;28;20026;-81
2022/02/25 12:15:19;;;;;;;8.45;4.47;;;;;;;;;;4995505;28;20580;-82
2022/02/25 12:17:51;;;;;;;26.10;15.68;;;;;;;;;;5010910;28;20030;-81
2022/02/25 12:20:19;;;;;;;12.23;7.85;;;;;;;;;;5003060;28;20030;-81
2022/02/25 12:23:04;;;;;;;4.63;3.10;;;;;;;;;;5009615;28;20034;-81
2022/02/25 12:25:30;;;;;;;;;;;;;;;;;;5010221;28;20034;-81
2022/02/25 12:27:56;;;;;;;4.72;2.40;;;;;;;;;;5010372;28;20283;-81
2022/02/25 12:30:42;;;;;;;10.05;3.88;;;;;;;;;;5012867;28;20563;-82
2022/02/25 12:33:27;;;;;;;7.20;3.30;;;;;;;;;;5016010;28;20400;-81
2022/02/25 12:35:56;;;;;;;;;;;;;;;;;;5012600;28;20489;-80
2022/02/25 12:38:23;;;;;;;5.70;3.08;;;;;;;;;;5011669;28;19921;-80
2022/02/25 12:40:50;;;;;;;6.38;2.72;;;;;;;;;;5012295;28;20510;-82
2022/02/25 12:43:16;;;;;;;4.70;2.15;;;;;;;;;;5012040;28;20026;-81
2022/02/25 12:45:42;;;;;;;7.20;2.30;;;;;;;;;;5012375;28;20045;-80
2022/02/25 12:48:09;;;;;;;4.35;2.58;;;;;;;;;;5010975;28;20042;-79
2022/02/25 12:50:42;;;;;;;5.13;2.35;;;;;;;;;;5002773;28;20470;-79
2022/02/25 12:53:08;;;;;;;7.88;4.10;;;;;;;;;;4993428;28;20041;-79
2022/02/25 12:55:34;;;;;;;6.50;3.75;;;;;;;;;;4992657;28;20026;-79
2022/02/25 12:58:00;;;;;;;8.13;4.05;;;;;;;;;;5025180;28;20121;-80
2022/02/25 13:00:27;;;;;;;8.05;3.08;;;;;;;;;;5012631;28;20119;-79
2022/02/25 13:02:53;;;;;;;6.90;2.28;;;;;;;;;;5012224;28;20370;-71
2022/02/25 13:05:20;;;;;;;7.35;2.88;;;;;;;;;;5011428;28;20084;-79
2022/02/25 13:08:05;;;;;;;5.53;2.85;;;;;;;;;;5011553;28;20022;-81
2022/02/25 13:10:31;;;;;;;7.55;3.33;;;;;;;;;;5018264;28;20496;-81
2022/02/25 13:12:57;;;;;;;5.90;2.88;;;;;;;;;;5019215;28;20038;-79
2022/02/25 13:15:27;;;;;;;7.85;5.03;;;;;;;;;;5012419;28;20030;-80
2022/02/25 13:17:54;;;;;;;6.10;3.20;;;;;;;;;;5011849;28;20500;-80
2022/02/25 13:20:20;;;;;;;3.45;2.00;;;;;;;;;;5011562;28;20045;-78
2022/02/25 13:22:47;;;;;;;6.65;2.55;;;;;;;;;;5011674;28;20037;-80
2022/02/25 13:25:23;;;;;;;4.05;2.63;;;;;;;;;;5011908;28;20065;-79
2022/02/25 13:27:49;;;;;;;4.95;2.03;;;;;;;;;;5011869;28;20388;-80
2022/02/25 13:30:15;;;;;;;4.53;2.20;;;;;;;;;;5011982;28;20448;-79
2022/02/25 13:32:45;;;;;;;9.27;5.13;;;;;;;;;;5012262;28;20420;-79
2022/02/25 13:35:11;;;;;;;9.35;5.90;;;;;;;;;;5005548;28;20045;-79
2022/02/25 13:37:52;;;;;;;7.68;3.75;;;;;;;;;;5018108;28;20072;-81
2022/02/25 13:40:25;;;;;;;4.57;2.88;;;;;;;;;;5013633;28;20477;-79
2022/02/25 13:42:51;;;;;;;6.40;3.80;;;;;;;;;;5011383;28;20106;-77
2022/02/25 13:45:34;;;;;;;10.57;3.97;;;;;;;;;;5010704;28;20487;-78
2022/02/25 13:53:42;;;;;;;4.15;2.55;;;;;;;;;;5011454;28;20049;-81
2022/02/25 13:56:09;;;;;;;3.83;1.88;;;;;;;;;;5011100;28;20091;-78
2022/02/25 13:58:35;;;;;;;5.20;2.53;;;;;;;;;;5009139;28;20070;-77
2022/02/25 14:01:01;;;;;;;6.63;2.42;;;;;;;;;;5010611;28;20033;-78
2022/02/25 14:03:38;;;;;;;4.85;2.28;;;;;;;;;;5009966;28;20025;-80
2022/02/25 14:06:21;;;;;;;2.85;1.88;;;;;;;;;;5010001;28;20118;-81
2022/02/25 14:08:47;;;;;;;4.22;2.00;;;;;;;;;;5012647;28;20133;-81
2022/02/25 14:11:13;;;;;;;4.90;2.60;;;;;;;;;;5014848;28;20113;-78
2022/02/25 14:13:44;;;;;;;5.57;2.20;;;;;;;;;;5014258;28;20022;-80
2022/02/25 14:16:12;;;;;;;6.47;3.50;;;;;;;;;;5015096;28;20088;-81
2022/02/25 14:18:38;;;;;;;8.82;3.05;;;;;;;;;;5015061;28;20508;-82
2022/02/25 14:21:04;;;;;;;5.90;3.53;;;;;;;;;;5014798;28;20501;-80
2022/02/25 14:23:30;;;;;;;6.68;3.20;;;;;;;;;;5014820;28;20030;-80
2022/02/25 14:25:56;;;;;;;7.30;4.57;;;;;;;;;;5015032;28;20058;-79
2022/02/25 14:28:47;;;;;;;8.38;3.03;;;;;;;;;;5013286;28;20033;-77
2022/02/25 14:37:23;;;;;;;5.03;2.85;;;;;;;;;;5013522;28;20117;-78
2022/02/25 14:40:08;;;;;;;4.78;2.65;;;;;;;;;;5012475;28;20128;-78
2022/02/25 14:42:34;;;;;;;4.32;2.63;;;;;;;;;;5011305;28;20068;-78
2022/02/25 14:45:01;;;;;;;7.40;3.00;;;;;;;;;;5013687;28;20022;-78
2022/02/25 14:47:27;;;;;;;3.90;1.77;;;;;;;;;;5013450;28;20026;-77
2022/02/25 14:49:53;;;;;;;6.65;2.35;;;;;;;;;;5013715;28;20022;-81
2022/02/25 14:52:19;;;;;;;4.47;2.33;;;;;;;;;;5012336;28;20026;-78
2022/02/25 14:54:46;;;;;;;12.50;7.25;;;;;;;;;;5013729;28;20494;-79
2022/02/25 14:57:12;;;;;;;17.08;11.05;;;;;;;;;;5013710;28;20049;-78